Time;durP1;ratioP1;P1;durP2;ratioP2;P2;SDS_P1;SDS_P2;PMS_P1;PMS_P2;Temp;Humidity;BMP_temperature;BMP_pressure;BME280_temperature;BME280_humidity;BME280_pressure;Samples;Min_cycle;Max_cycle;Signal;HPM_P1;HPM_P2
2023/02/05 00:01:43;;;;;;;10.48;7.78;;;5.80;99.90;;;;;;4938812;28;93411;-73
2023/02/05 00:04:10;;;;;;;9.70;7.45;;;5.80;99.90;;;;;;4936253;28;94928;-73
2023/02/05 00:06:37;;;;;;;10.13;7.90;;;5.80;99.90;;;;;;4921146;28;92575;-73
2023/02/05 00:09:04;;;;;;;9.55;8.18;;;5.80;99.90;;;;;;4937568;28;93452;-74
2023/02/05 00:11:31;;;;;;;9.15;8.02;;;5.80;99.90;;;;;;4937791;28;93004;-74
2023/02/05 00:13:58;;;;;;;9.40;7.80;;;5.80;99.90;;;;;;4953538;28;92606;-73
2023/02/05 00:16:26;;;;;;;11.88;8.40;;;5.80;99.90;;;;;;4920647;28;92517;-74
2023/02/05 00:18:53;;;;;;;9.15;8.20;;;5.80;99.90;;;;;;4938350;28;93329;-73
2023/02/05 00:21:22;;;;;;;9.82;7.85;;;5.80;99.90;;;;;;4921162;28;95729;-73
2023/02/05 00:23:49;;;;;;;9.18;8.10;;;5.80;99.90;;;;;;4938476;28;92447;-73
2023/02/05 00:26:16;;;;;;;9.95;8.00;;;5.80;99.90;;;;;;4936994;28;92907;-73
2023/02/05 00:28:44;;;;;;;9.55;8.05;;;5.80;99.90;;;;;;4935389;28;98796;-73
2023/02/05 00:31:17;;;;;;;10.40;8.00;;;5.80;99.90;;;;;;4936610;28;93954;-73
2023/02/05 00:33:45;;;;;;;11.95;9.27;;;5.90;99.90;;;;;;4937059;28;92857;-73
2023/02/05 00:36:13;;;;;;;9.45;8.18;;;5.90;99.90;;;;;;4936645;28;92615;-73
2023/02/05 00:38:40;;;;;;;8.93;8.02;;;5.90;99.90;;;;;;4936698;28;96294;-73
2023/02/05 00:41:08;;;;;;;8.57;7.57;;;5.90;99.90;;;;;;4920768;28;92932;-74
2023/02/05 00:43:40;;;;;;;10.65;8.45;;;5.90;99.90;;;;;;4938169;28;92917;-73
2023/02/05 00:46:11;;;;;;;9.73;8.20;;;5.90;99.90;;;;;;4921811;28;92302;-73
2023/02/05 00:48:41;;;;;;;9.90;7.78;;;5.90;99.90;;;;;;4937991;28;93277;-73
2023/02/05 00:51:09;;;;;;;9.18;8.10;;;5.90;99.90;;;;;;4937975;28;92474;-73
2023/02/05 00:53:36;;;;;;;8.85;7.95;;;5.90;99.90;;;;;;4936895;28;94825;-73
2023/02/05 00:56:03;;;;;;;9.52;7.13;;;5.90;99.90;;;;;;4920504;28;92543;-73
2023/02/05 00:58:31;;;;;;;9.40;8.13;;;5.90;99.90;;;;;;4936172;28;95904;-73
2023/02/05 01:00:58;;;;;;;9.63;8.07;;;5.90;99.90;;;;;;4936035;28;95474;-73
2023/02/05 01:03:28;;;;;;;9.23;8.05;;;5.90;99.90;;;;;;4936442;28;92423;-74
2023/02/05 01:05:55;;;;;;;8.73;7.82;;;6.00;99.90;;;;;;4936415;28;92538;-74
2023/02/05 01:08:23;;;;;;;8.95;7.78;;;6.00;99.90;;;;;;4920102;28;95562;-74
2023/02/05 01:10:51;;;;;;;10.77;8.05;;;6.10;99.90;;;;;;4937953;28;92309;-74
2023/02/05 01:13:18;;;;;;;9.75;7.78;;;6.10;99.90;;;;;;4936309;28;92440;-74
2023/02/05 01:15:45;;;;;;;8.85;7.63;;;6.20;99.90;;;;;;4937695;28;92428;-74
2023/02/05 01:18:13;;;;;;;10.93;8.68;;;6.20;99.90;;;;;;4936482;28;95468;-74
2023/02/05 01:20:42;;;;;;;9.77;8.52;;;6.20;99.90;;;;;;4920104;28;98387;-74
2023/02/05 01:23:10;;;;;;;9.07;8.18;;;6.20;99.90;;;;;;4936341;28;93169;-74
2023/02/05 01:25:37;;;;;;;10.10;8.55;;;6.20;99.90;;;;;;4937017;28;92470;-74
2023/02/05 01:28:05;;;;;;;9.93;8.77;;;6.20;99.90;;;;;;4919920;28;95891;-74
2023/02/05 01:30:33;;;;;;;10.30;9.02;;;6.20;99.90;;;;;;4937118;28;93366;-74
2023/02/05 01:33:00;;;;;;;9.32;8.27;;;6.20;99.90;;;;;;4920096;28;92508;-74
2023/02/05 01:35:28;;;;;;;12.15;8.45;;;6.20;99.90;;;;;;4937570;28;92378;-74
2023/02/05 01:37:55;;;;;;;10.85;8.57;;;6.20;99.90;;;;;;4919752;28;95497;-74
2023/02/05 01:40:22;;;;;;;9.98;8.32;;;6.20;99.90;;;;;;4935673;28;93194;-74
2023/02/05 01:42:49;;;;;;;10.63;9.48;;;6.20;99.90;;;;;;4934575;28;94848;-74
2023/02/05 01:45:21;;;;;;;10.25;8.13;;;6.30;99.90;;;;;;4936042;28;92782;-74
2023/02/05 01:47:54;;;;;;;12.07;9.32;;;6.30;99.90;;;;;;4937002;28;93229;-74
2023/02/05 01:50:45;;;;;;;10.45;9.02;;;6.30;99.90;;;;;;4936662;28;93257;-74
2023/02/05 01:53:18;;;;;;;13.60;9.43;;;6.30;99.90;;;;;;4935748;28;92588;-74
2023/02/05 01:56:00;;;;;;;12.88;9.77;;;6.30;99.90;;;;;;4935737;28;92467;-74
2023/02/05 01:58:31;;;;;;;11.50;8.95;;;6.30;99.90;;;;;;4934508;28;95930;-74
2023/02/05 02:00:58;;;;;;;9.32;8.43;;;6.30;99.90;;;;;;4919703;28;95702;-74
2023/02/05 02:03:29;;;;;;;11.00;9.05;;;6.30;99.90;;;;;;4919514;28;92442;-74
2023/02/05 02:05:56;;;;;;;14.90;9.82;;;6.30;99.90;;;;;;4935771;28;92601;-74
2023/02/05 02:08:23;;;;;;;12.30;8.82;;;6.30;99.90;;;;;;4934019;28;97398;-74
2023/02/05 02:10:52;;;;;;;13.50;9.30;;;6.30;99.90;;;;;;4903364;28;97939;-74
2023/02/05 02:13:21;;;;;;;14.18;8.93;;;6.30;99.90;;;;;;4919280;28;93015;-73
2023/02/05 02:15:49;;;;;;;12.55;9.48;;;6.30;99.90;;;;;;4935338;28;92497;-74
2023/02/05 02:18:27;;;;;;;11.05;8.82;;;6.30;99.90;;;;;;4935433;28;93123;-73
2023/02/05 02:21:06;;;;;;;13.00;8.77;;;6.30;99.90;;;;;;4935202;28;95866;-73
2023/02/05 02:23:58;;;;;;;10.35;8.73;;;6.40;99.90;;;;;;4934943;28;92626;-73
2023/02/05 02:26:25;;;;;;;10.52;9.45;;;6.30;99.90;;;;;;4935321;28;91779;-73
2023/02/05 02:29:03;;;;;;;10.55;9.45;;;6.40;99.90;;;;;;4936482;28;93638;-73
2023/02/05 02:31:36;;;;;;;12.20;9.02;;;6.40;99.90;;;;;;4936311;28;92775;-73
2023/02/05 02:34:29;;;;;;;14.02;9.77;;;6.40;99.90;;;;;;4935572;28;94888;-73
2023/02/05 02:37:10;;;;;;;16.33;9.43;;;6.50;99.90;;;;;;4931084;28;92577;-73
2023/02/05 02:39:43;;;;;;;11.40;8.90;;;6.50;99.90;;;;;;4938413;28;92851;-73
2023/02/05 02:42:24;;;;;;;12.25;9.38;;;6.50;99.90;;;;;;4938434;28;95674;-73
2023/02/05 02:44:58;;;;;;;14.68;10.20;;;6.50;99.90;;;;;;4922537;28;92482;-73
2023/02/05 02:47:31;;;;;;;15.30;10.07;;;6.50;99.90;;;;;;4939418;28;92478;-73
2023/02/05 02:50:13;;;;;;;16.20;10.50;;;6.50;99.90;;;;;;4921673;28;96076;-73
2023/02/05 02:52:43;;;;;;;14.63;10.70;;;6.50;99.90;;;;;;4937516;28;95561;-73
2023/02/05 02:55:12;;;;;;;14.70;9.60;;;6.50;99.90;;;;;;4939635;28;92405;-73
2023/02/05 02:57:45;;;;;;;13.75;10.20;;;6.60;99.90;;;;;;4922801;28;92465;-73
2023/02/05 03:00:18;;;;;;;13.80;10.57;;;6.60;99.90;;;;;;4936122;28;98567;-73
2023/02/05 03:02:49;;;;;;;15.43;10.90;;;6.60;99.90;;;;;;4938896;28;95729;-74
2023/02/05 03:05:20;;;;;;;12.70;10.57;;;6.60;99.90;;;;;;4939021;28;92362;-74
2023/02/05 03:07:55;;;;;;;16.55;10.80;;;6.60;99.90;;;;;;4937420;28;92483;-74
2023/02/05 03:10:55;;;;;;;15.45;10.30;;;6.60;99.90;;;;;;4938896;28;93243;-74
2023/02/05 03:13:22;;;;;;;15.85;10.93;;;6.60;99.90;;;;;;4918485;28;96164;-74
2023/02/05 03:15:55;;;;;;;18.73;11.90;;;6.60;99.90;;;;;;4937553;28;92520;-74
2023/02/05 03:18:23;;;;;;;18.20;11.88;;;6.60;99.90;;;;;;4939303;28;91705;-73
2023/02/05 03:20:55;;;;;;;18.00;11.55;;;6.60;99.90;;;;;;4920978;28;95842;-73
2023/02/05 03:23:25;;;;;;;19.63;12.15;;;6.60;99.90;;;;;;4937448;28;95619;-73
2023/02/05 03:25:52;;;;;;;16.13;11.80;;;6.70;99.90;;;;;;4936164;28;95560;-73
2023/02/05 03:28:24;;;;;;;18.02;10.55;;;6.70;99.90;;;;;;4937270;28;92460;-74
2023/02/05 03:30:58;;;;;;;19.58;11.48;;;6.70;99.90;;;;;;4920819;28;95880;-73
2023/02/05 03:33:28;;;;;;;16.23;11.73;;;6.70;99.90;;;;;;4937163;28;95722;-73
2023/02/05 03:36:24;;;;;;;18.08;12.10;;;6.80;99.90;;;;;;4938532;28;92985;-73
2023/02/05 03:39:23;;;;;;;24.63;12.57;;;6.80;99.90;;;;;;4937028;28;92385;-73
2023/02/05 03:42:22;;;;;;;19.05;12.45;;;6.80;99.90;;;;;;4936718;28;95912;-73
2023/02/05 03:44:56;;;;;;;23.17;13.25;;;6.80;99.90;;;;;;4936813;28;95391;-72
2023/02/05 03:47:52;;;;;;;23.92;13.57;;;6.70;99.90;;;;;;4935924;28;92562;-73
2023/02/05 03:50:28;;;;;;;23.95;12.60;;;6.80;99.90;;;;;;4936875;28;92579;-73
2023/02/05 03:53:23;;;;;;;25.38;12.77;;;6.80;99.90;;;;;;4935364;28;98052;-73
2023/02/05 03:55:59;;;;;;;23.20;12.60;;;6.90;99.90;;;;;;4936573;28;97987;-73
2023/02/05 03:58:51;;;;;;;18.92;13.57;;;6.80;99.90;;;;;;4920593;28;92502;-73
2023/02/05 04:01:20;;;;;;;23.98;13.60;;;6.90;99.90;;;;;;4936751;28;92493;-73
2023/02/05 04:03:47;;;;;;;29.23;15.48;;;6.80;99.90;;;;;;4936157;28;95835;-73
2023/02/05 04:06:15;;;;;;;27.42;13.43;;;6.90;99.90;;;;;;4936655;28;95631;-73
2023/02/05 04:08:43;;;;;;;24.50;13.30;;;6.90;99.90;;;;;;4936567;28;92562;-73
2023/02/05 04:11:11;;;;;;;24.52;13.93;;;6.90;99.90;;;;;;4937108;28;91859;-73
2023/02/05 04:13:39;;;;;;;28.05;14.30;;;6.90;99.90;;;;;;4937580;28;92458;-73
2023/02/05 04:16:09;;;;;;;21.67;14.38;;;7.00;99.90;;;;;;4936420;28;95106;-73
2023/02/05 04:18:36;;;;;;;30.83;14.65;;;7.00;99.90;;;;;;4903625;28;94921;-72
2023/02/05 04:21:03;;;;;;;25.83;14.38;;;7.00;99.90;;;;;;4920430;28;92572;-73
2023/02/05 04:23:32;;;;;;;31.42;15.27;;;7.00;99.90;;;;;;4936280;28;94153;-73
2023/02/05 04:26:00;;;;;;;30.25;15.40;;;7.10;99.90;;;;;;4935970;28;95286;-72
2023/02/05 04:28:33;;;;;;;27.20;13.57;;;7.10;99.90;;;;;;4936497;28;92545;-73
2023/02/05 04:31:10;;;;;;;28.10;14.52;;;7.10;99.90;;;;;;4920602;28;93741;-73
2023/02/05 04:33:39;;;;;;;31.90;16.20;;;7.10;99.90;;;;;;4920798;28;95958;-73
2023/02/05 04:36:08;;;;;;;29.23;15.70;;;7.10;99.90;;;;;;4936543;28;95304;-73
2023/02/05 04:38:36;;;;;;;29.65;16.60;;;7.10;99.90;;;;;;4936197;28;92617;-73
2023/02/05 04:41:03;;;;;;;31.90;15.25;;;7.20;99.90;;;;;;4937227;28;92485;-73
2023/02/05 04:43:30;;;;;;;23.15;15.20;;;7.20;99.90;;;;;;4918865;28;98201;-73
2023/02/05 04:45:57;;;;;;;34.75;16.77;;;7.20;99.90;;;;;;4935946;28;95692;-73
2023/02/05 04:48:24;;;;;;;30.48;17.13;;;7.20;99.90;;;;;;4936407;28;92522;-73
2023/02/05 04:50:51;;;;;;;30.45;17.42;;;7.20;99.90;;;;;;4937506;28;92504;-73
2023/02/05 04:53:18;;;;;;;40.38;17.88;;;7.20;99.90;;;;;;4936016;28;93322;-73
2023/02/05 04:55:45;;;;;;;39.78;17.00;;;7.20;99.90;;;;;;4936004;28;92479;-73
2023/02/05 04:58:12;;;;;;;42.80;18.13;;;7.20;99.90;;;;;;4935398;28;92467;-73
2023/02/05 05:00:39;;;;;;;39.42;18.02;;;7.30;99.90;;;;;;4936605;28;91706;-73
2023/02/05 05:03:06;;;;;;;44.80;18.48;;;7.30;99.90;;;;;;4935492;28;95597;-73
2023/02/05 05:05:36;;;;;;;54.00;20.85;;;7.30;99.90;;;;;;4919717;28;94398;-73
2023/02/05 05:08:03;;;;;;;47.72;19.73;;;7.30;99.90;;;;;;4936255;28;94872;-73
2023/02/05 05:10:30;;;;;;;60.20;20.90;;;7.30;99.90;;;;;;4935761;28;93068;-73
2023/02/05 05:12:57;;;;;;;54.95;21.88;;;7.30;99.90;;;;;;4936786;28;93600;-73
2023/02/05 05:15:24;;;;;;;59.67;21.55;;;7.40;99.90;;;;;;4936867;28;93433;-73
2023/02/05 05:17:51;;;;;;;51.55;19.65;;;7.40;99.90;;;;;;4935646;28;92421;-73
2023/02/05 05:20:18;;;;;;;60.13;21.70;;;7.40;99.90;;;;;;4937173;28;93105;-73
2023/02/05 05:22:45;;;;;;;48.92;20.70;;;7.40;99.90;;;;;;4951605;28;101701;-73
2023/02/05 05:25:12;;;;;;;52.35;20.25;;;7.40;99.90;;;;;;4937054;28;92967;-73
2023/02/05 05:27:39;;;;;;;53.92;21.88;;;7.40;99.90;;;;;;4935700;28;92412;-73
2023/02/05 05:30:07;;;;;;;49.40;21.63;;;7.50;99.90;;;;;;4936705;28;92896;-73
2023/02/05 05:32:34;;;;;;;50.40;19.90;;;7.50;99.90;;;;;;4934373;28;95793;-73
2023/02/05 05:35:01;;;;;;;52.55;19.33;;;7.50;99.90;;;;;;4935146;28;95502;-73
2023/02/05 05:37:27;;;;;;;51.85;19.50;;;7.50;99.90;;;;;;4936426;28;92362;-73
2023/02/05 05:45:26;;;;;;;43.70;20.38;;;7.50;99.90;;;;;;4921786;28;95655;-73
2023/02/05 05:47:53;;;;;;;48.88;20.08;;;7.50;99.90;;;;;;4951396;28;92541;-73
2023/02/05 05:50:20;;;;;;;41.13;17.88;;;7.50;99.90;;;;;;4936905;28;91739;-74
2023/02/05 05:52:50;;;;;;;41.25;18.52;;;7.60;99.90;;;;;;4934791;28;96516;-73
2023/02/05 05:55:20;;;;;;;37.38;18.00;;;7.60;99.90;;;;;;4935023;28;95591;-73
2023/02/05 05:57:47;;;;;;;46.60;20.08;;;7.60;99.90;;;;;;4935280;28;94744;-73
2023/02/05 06:00:14;;;;;;;38.42;19.25;;;7.60;99.90;;;;;;4902591;28;92531;-73
2023/02/05 06:02:43;;;;;;;45.20;18.60;;;7.60;99.90;;;;;;4934803;28;93907;-73
2023/02/05 06:05:10;;;;;;;55.08;19.75;;;7.60;99.90;;;;;;4934875;28;93060;-72
2023/02/05 06:07:39;;;;;;;39.92;19.13;;;7.60;99.90;;;;;;4950920;28;92570;-73
2023/02/05 06:10:06;;;;;;;41.53;18.77;;;7.70;99.90;;;;;;4935436;28;92896;-73
2023/02/05 06:12:33;;;;;;;44.35;19.45;;;7.60;99.90;;;;;;4934985;28;93695;-73
2023/02/05 06:15:00;;;;;;;43.42;19.13;;;7.70;99.90;;;;;;4918662;28;95861;-73
2023/02/05 06:17:27;;;;;;;37.38;17.27;;;7.70;99.90;;;;;;4936284;28;92437;-73
2023/02/05 06:19:54;;;;;;;35.63;17.67;;;7.70;99.90;;;;;;4934436;28;94006;-73
2023/02/05 06:22:21;;;;;;;38.70;19.30;;;7.70;99.90;;;;;;4934708;28;95571;-72
2023/02/05 06:24:48;;;;;;;35.28;14.65;;;7.70;99.90;;;;;;4934720;28;95482;-72
2023/02/05 06:27:15;;;;;;;26.77;12.18;;;7.60;99.90;;;;;;4934865;28;92521;-73
2023/02/05 06:29:42;;;;;;;14.13;7.85;;;7.60;99.90;;;;;;4934784;28;92547;-73
2023/02/05 06:32:09;;;;;;;8.70;4.95;;;7.50;99.90;;;;;;4934956;28;93290;-73
2023/02/05 06:34:36;;;;;;;10.52;4.45;;;7.50;99.90;;;;;;4936341;28;93317;-73
2023/02/05 06:37:03;;;;;;;10.85;4.80;;;7.50;99.90;;;;;;4936516;28;92546;-73
2023/02/05 06:39:30;;;;;;;7.30;3.90;;;7.50;99.90;;;;;;4919237;28;91812;-73
2023/02/05 06:41:57;;;;;;;9.60;3.95;;;7.40;99.90;;;;;;4934861;28;93279;-73
2023/02/05 06:44:24;;;;;;;10.02;2.50;;;7.40;99.90;;;;;;4934472;28;95499;-73
2023/02/05 06:46:51;;;;;;;8.60;2.22;;;7.40;99.90;;;;;;4902071;28;94803;-73
2023/02/05 06:49:18;;;;;;;5.53;1.95;;;7.40;99.90;;;;;;4934858;28;92538;-73
2023/02/05 06:51:45;;;;;;;5.43;1.77;;;7.30;99.90;;;;;;4934723;28;95753;-73
2023/02/05 06:54:12;;;;;;;9.48;1.98;;;7.30;99.90;;;;;;4934637;28;95565;-73
2023/02/05 06:56:39;;;;;;;5.13;1.80;;;7.30;99.90;;;;;;4919153;28;92403;-73
2023/02/05 06:59:06;;;;;;;6.32;1.27;;;7.30;99.90;;;;;;4934162;28;92503;-73
2023/02/05 07:01:32;;;;;;;8.48;1.65;;;7.20;99.90;;;;;;4934715;28;92540;-73
2023/02/05 07:04:00;;;;;;;7.32;1.63;;;7.10;99.90;;;;;;4934776;28;93959;-73
2023/02/05 07:06:27;;;;;;;5.20;1.85;;;7.10;99.90;;;;;;4918997;28;92414;-74
2023/02/05 07:08:54;;;;;;;5.40;1.30;;;7.00;99.90;;;;;;4936340;28;92498;-73
2023/02/05 07:11:22;;;;;;;6.82;1.23;;;6.90;99.90;;;;;;4934445;28;95643;-73
2023/02/05 07:13:49;;;;;;;11.25;2.17;;;6.90;99.90;;;;;;4934828;28;95335;-73
2023/02/05 07:16:16;;;;;;;6.57;1.70;;;6.90;99.90;;;;;;4918594;28;92547;-73
2023/02/05 07:18:43;;;;;;;7.43;1.65;;;6.90;99.90;;;;;;4934940;28;92515;-73
2023/02/05 07:21:15;;;;;;;6.65;1.40;;;6.80;99.90;;;;;;4936203;28;93210;-73
2023/02/05 07:23:42;;;;;;;5.88;2.28;;;6.80;99.90;;;;;;4939333;28;93286;-73
2023/02/05 07:26:12;;;;;;;8.65;1.02;;;6.80;99.90;;;;;;4937823;28;92488;-73
2023/02/05 07:28:39;;;;;;;10.00;1.42;;;6.80;99.90;;;;;;4938221;28;91803;-73
2023/02/05 07:31:14;;;;;;;7.00;1.48;;;6.80;99.90;;;;;;4938645;28;93535;-73
2023/02/05 07:33:43;;;;;;;8.17;1.60;;;6.80;99.90;;;;;;4939297;28;92708;-73
2023/02/05 07:36:12;;;;;;;8.27;1.70;;;6.80;99.90;;;;;;4937605;28;94782;-73
2023/02/05 07:38:39;;;;;;;5.65;1.33;;;6.80;99.90;;;;;;4921505;28;92553;-74
2023/02/05 07:41:08;;;;;;;1.33;0.80;;;6.70;99.90;;;;;;4905402;28;95692;-74
2023/02/05 07:43:36;;;;;;;5.35;1.70;;;6.80;99.90;;;;;;4921882;28;92946;-73
2023/02/05 07:46:06;;;;;;;6.40;1.10;;;6.70;99.90;;;;;;4938812;28;93389;-73
2023/02/05 07:48:34;;;;;;;4.65;1.10;;;6.80;99.90;;;;;;4937786;28;92435;-74
2023/02/05 07:51:01;;;;;;;8.07;1.65;;;6.70;99.90;;;;;;4937204;28;92514;-73
2023/02/05 07:53:28;;;;;;;6.95;2.10;;;6.60;99.90;;;;;;4938865;28;93052;-73
2023/02/05 07:55:55;;;;;;;7.75;1.50;;;6.60;99.90;;;;;;4937658;28;93179;-73
2023/02/05 07:58:22;;;;;;;6.75;1.30;;;6.70;99.90;;;;;;4938478;28;92458;-74
2023/02/05 08:00:49;;;;;;;5.10;1.48;;;6.60;99.90;;;;;;4952486;28;95572;-73
2023/02/05 08:03:16;;;;;;;8.27;1.50;;;6.70;99.90;;;;;;4937238;28;95130;-74
2023/02/05 08:05:43;;;;;;;3.90;1.83;;;6.70;99.90;;;;;;4937493;28;92543;-73
2023/02/05 08:08:11;;;;;;;3.95;1.48;;;6.80;99.90;;;;;;4937477;28;93109;-73
2023/02/05 08:10:38;;;;;;;8.82;1.83;;;6.70;99.90;;;;;;4937078;28;95952;-73
2023/02/05 08:13:05;;;;;;;8.32;1.60;;;6.80;99.90;;;;;;4921284;28;93146;-73
2023/02/05 08:15:33;;;;;;;4.47;1.63;;;6.90;99.90;;;;;;4938734;28;92821;-74
2023/02/05 08:18:00;;;;;;;6.82;1.92;;;6.90;99.90;;;;;;4938725;28;91734;-73
2023/02/05 08:20:27;;;;;;;8.38;1.52;;;6.80;99.90;;;;;;4936710;28;95498;-73
2023/02/05 08:22:54;;;;;;;8.45;1.63;;;6.90;99.90;;;;;;4905217;28;94568;-73
2023/02/05 08:25:21;;;;;;;7.00;1.83;;;6.90;99.90;;;;;;4937360;28;95328;-73
2023/02/05 08:27:48;;;;;;;8.55;1.88;;;6.90;99.90;;;;;;4921059;28;92562;-73
2023/02/05 08:30:16;;;;;;;9.57;2.05;;;7.00;99.90;;;;;;4920612;28;95742;-73
2023/02/05 08:32:48;;;;;;;6.40;2.13;;;7.00;99.90;;;;;;4937272;28;93125;-73
2023/02/05 08:35:16;;;;;;;5.03;1.70;;;7.10;99.90;;;;;;4937149;28;92558;-73
2023/02/05 08:37:43;;;;;;;9.25;2.20;;;7.20;99.90;;;;;;4904780;28;92510;-73
2023/02/05 08:40:11;;;;;;;8.73;1.77;;;7.30;99.90;;;;;;4937740;28;93298;-73
2023/02/05 08:42:39;;;;;;;6.28;1.48;;;7.40;99.90;;;;;;4921158;28;91840;-73
2023/02/05 08:45:07;;;;;;;9.82;1.88;;;7.40;99.90;;;;;;4936717;28;92514;-73
2023/02/05 08:47:35;;;;;;;4.32;1.70;;;7.40;99.90;;;;;;4904919;28;92539;-73
2023/02/05 08:50:04;;;;;;;10.18;1.83;;;7.50;99.90;;;;;;4936509;28;94935;-73
2023/02/05 08:52:31;;;;;;;4.32;1.33;;;7.50;99.90;;;;;;4937606;28;95396;-73
2023/02/05 08:54:58;;;;;;;4.93;1.25;;;7.50;99.90;;;;;;4936993;28;92472;-73
2023/02/05 08:57:27;;;;;;;7.63;1.45;;;7.60;99.90;;;;;;4936414;28;92625;-74
2023/02/05 08:59:54;;;;;;;8.82;1.50;;;7.70;99.90;;;;;;4937275;28;92465;-73
2023/02/05 09:02:23;;;;;;;4.40;1.40;;;7.80;99.90;;;;;;4920028;28;95642;-73
2023/02/05 09:04:53;;;;;;;4.65;1.33;;;7.80;99.90;;;;;;4938162;28;93041;-73
2023/02/05 09:07:33;;;;;;;3.63;1.30;;;7.80;99.90;;;;;;4938237;28;91574;-73
2023/02/05 09:10:02;;;;;;;3.50;1.38;;;7.90;99.90;;;;;;4920557;28;95888;-73
2023/02/05 09:12:29;;;;;;;5.00;1.38;;;8.00;99.90;;;;;;4935838;28;95550;-73
2023/02/05 09:14:56;;;;;;;5.53;1.27;;;8.00;99.90;;;;;;4951718;28;95274;-73
2023/02/05 09:17:23;;;;;;;7.20;2.03;;;7.90;99.90;;;;;;4936318;28;92509;-74
2023/02/05 09:19:50;;;;;;;8.15;1.80;;;7.90;99.90;;;;;;4936006;28;95841;-73
2023/02/05 09:22:18;;;;;;;7.75;1.58;;;7.90;99.90;;;;;;4935971;28;92918;-73
2023/02/05 09:24:44;;;;;;;9.85;1.58;;;7.90;99.90;;;;;;4936662;28;93336;-73
2023/02/05 09:27:13;;;;;;;7.95;1.55;;;8.00;99.90;;;;;;4935931;28;92576;-73
2023/02/05 09:29:40;;;;;;;8.88;1.75;;;8.00;99.90;;;;;;4936901;28;94164;-73
2023/02/05 09:32:07;;;;;;;9.48;1.63;;;8.00;99.90;;;;;;4936201;28;95672;-73
2023/02/05 09:34:34;;;;;;;9.50;1.98;;;8.00;99.90;;;;;;4937148;28;92554;-73
2023/02/05 09:37:01;;;;;;;7.80;2.22;;;7.90;99.90;;;;;;4920061;28;92651;-73
2023/02/05 09:39:29;;;;;;;5.13;1.48;;;8.00;99.90;;;;;;4934181;28;105688;-73
2023/02/05 09:42:22;;;;;;;5.72;1.25;;;7.90;99.90;;;;;;4936578;28;95687;-73
2023/02/05 09:45:00;;;;;;;9.48;1.35;;;8.00;99.90;;;;;;4937153;28;92421;-73
2023/02/05 09:47:43;;;;;;;7.40;1.25;;;8.10;99.90;;;;;;4935552;28;92988;-73
2023/02/05 09:50:24;;;;;;;6.75;1.10;;;8.20;99.90;;;;;;4919681;28;95865;-73
2023/02/05 09:52:55;;;;;;;7.85;1.73;;;8.20;99.90;;;;;;4919557;28;95430;-73
2023/02/05 09:55:43;;;;;;;5.18;1.67;;;8.30;99.90;;;;;;4937146;28;92524;-73
2023/02/05 09:58:25;;;;;;;12.25;2.40;;;8.30;99.90;;;;;;4936851;28;91718;-73
2023/02/05 10:01:02;;;;;;;5.32;2.00;;;8.30;99.90;;;;;;4935392;28;96361;-73
2023/02/05 10:03:43;;;;;;;5.78;1.73;;;8.30;99.90;;;;;;4935228;28;96057;-73
2023/02/05 10:06:33;;;;;;;6.50;1.77;;;8.30;99.90;;;;;;4934449;28;94814;-72
2023/02/05 10:09:22;;;;;;;6.00;1.50;;;8.40;99.90;;;;;;4937023;28;92456;-73
2023/02/05 10:12:20;;;;;;;11.27;1.80;;;8.50;99.90;;;;;;4935248;28;96139;-73
2023/02/05 10:15:07;;;;;;;5.18;1.75;;;8.50;99.90;;;;;;4936714;28;92491;-72
2023/02/05 10:18:04;;;;;;;5.60;1.50;;;8.60;99.90;;;;;;4936531;28;92473;-73
2023/02/05 10:20:40;;;;;;;6.78;1.40;;;8.70;99.90;;;;;;4900639;28;92693;-72
2023/02/05 10:23:28;;;;;;;9.77;1.48;;;8.70;99.90;;;;;;4935050;28;95833;-72
2023/02/05 10:26:10;;;;;;;11.48;2.70;;;8.90;99.90;;;;;;4937019;28;92945;-72
2023/02/05 10:28:59;;;;;;;10.75;1.90;;;8.90;99.90;;;;;;4936727;28;92377;-72
2023/02/05 10:31:42;;;;;;;10.35;1.73;;;8.90;99.90;;;;;;4936741;28;92964;-72
2023/02/05 10:34:46;;;;;;;3.35;1.25;;;8.80;99.90;;;;;;4935517;28;96063;-73
2023/02/05 10:37:17;;;;;;;5.90;1.43;;;8.80;99.90;;;;;;4918790;28;98336;-72
2023/02/05 10:39:46;;;;;;;3.63;1.40;;;8.70;99.90;;;;;;4935240;28;92569;-72
2023/02/05 10:42:19;;;;;;;5.78;1.70;;;8.70;99.90;;;;;;4918945;28;92665;-72
2023/02/05 10:44:51;;;;;;;9.67;2.00;;;8.80;99.90;;;;;;4936344;28;93605;-72
2023/02/05 10:47:39;;;;;;;11.40;1.55;;;8.80;99.90;;;;;;4934858;28;95710;-72
2023/02/05 10:50:36;;;;;;;11.70;2.13;;;8.80;99.90;;;;;;4919059;28;92505;-72
2023/02/05 10:53:03;;;;;;;9.50;2.03;;;8.80;99.90;;;;;;4929113;28;91680;-72
2023/02/05 10:55:31;;;;;;;9.10;1.98;;;8.80;99.90;;;;;;4951733;28;93317;-72
2023/02/05 10:58:06;;;;;;;8.50;1.98;;;8.90;99.90;;;;;;4937726;28;95732;-72
2023/02/05 11:00:33;;;;;;;8.38;2.28;;;9.00;99.90;;;;;;4938568;28;94864;-73
2023/02/05 11:03:03;;;;;;;11.45;2.28;;;9.10;99.90;;;;;;4938169;28;92499;-72
2023/02/05 11:05:40;;;;;;;18.95;2.22;;;9.20;99.90;;;;;;4937682;28;93390;-72
2023/02/05 11:08:29;;;;;;;12.43;2.60;;;9.30;99.90;;;;;;4938301;28;92478;-73
2023/02/05 11:10:56;;;;;;;10.63;2.40;;;9.30;99.90;;;;;;4938122;28;92626;-72
2023/02/05 11:13:24;;;;;;;14.32;3.10;;;9.20;99.90;;;;;;4939383;28;92818;-73
2023/02/05 11:16:02;;;;;;;10.73;2.75;;;9.10;99.90;;;;;;4937367;28;96169;-73
2023/02/05 11:18:35;;;;;;;10.73;2.55;;;9.20;99.90;;;;;;4938106;28;95660;-73
2023/02/05 11:21:04;;;;;;;9.65;2.92;;;9.20;99.90;;;;;;4939408;28;92357;-73
2023/02/05 11:23:37;;;;;;;13.65;2.85;;;9.30;99.90;;;;;;4937923;28;93493;-74
2023/02/05 11:26:19;;;;;;;11.95;2.95;;;9.30;99.90;;;;;;4936647;28;95737;-73
2023/02/05 11:28:46;;;;;;;14.07;3.15;;;9.30;99.90;;;;;;4937718;28;95361;-73
2023/02/05 11:31:29;;;;;;;8.40;1.85;;;9.30;99.90;;;;;;4939182;28;92568;-73
2023/02/05 11:34:16;;;;;;;15.77;2.67;;;9.40;99.90;;;;;;4937694;28;92482;-73
2023/02/05 11:36:53;;;;;;;13.10;2.67;;;9.40;99.90;;;;;;4937635;28;92504;-73
2023/02/05 11:39:38;;;;;;;13.90;3.53;;;9.50;99.90;;;;;;4937716;28;93121;-73
2023/02/05 11:42:09;;;;;;;12.45;2.80;;;9.50;99.90;;;;;;4921691;28;92468;-73
2023/02/05 11:44:47;;;;;;;12.35;2.45;;;9.30;99.90;;;;;;4937710;28;91724;-73
2023/02/05 11:47:22;;;;;;;17.30;3.05;;;9.30;99.90;;;;;;4939286;28;93145;-73
2023/02/05 11:49:50;;;;;;;13.10;2.58;;;9.30;99.90;;;;;;4938691;28;92823;-73
2023/02/05 11:52:36;;;;;;;12.75;2.60;;;9.40;99.90;;;;;;4937746;28;94845;-73
2023/02/05 11:55:05;;;;;;;7.47;2.10;;;9.50;99.90;;;;;;4938976;28;92505;-73
2023/02/05 11:57:38;;;;;;;19.00;3.28;;;9.60;99.90;;;;;;4937406;28;93247;-73
2023/02/05 12:00:08;;;;;;;16.15;3.20;;;9.50;99.90;;;;;;4936534;28;92823;-73
2023/02/05 12:02:37;;;;;;;17.75;4.07;;;9.50;99.90;;;;;;4937623;28;92506;-73
2023/02/05 12:05:43;;;;;;;15.20;3.40;;;9.50;99.90;;;;;;4937382;28;92512;-73
2023/02/05 12:08:36;;;;;;;19.17;3.70;;;9.60;99.90;;;;;;4880031;28;95918;-73
2023/02/05 12:11:59;;;;;;;15.52;3.13;;;9.50;99.90;;;;;;4937427;28;95626;-73
2023/02/05 12:15:11;;;;;;;13.10;2.83;;;9.60;99.90;;;;;;4938445;28;92545;-72
2023/02/05 12:17:59;;;;;;;15.35;3.58;;;9.50;99.90;;;;;;4938608;28;93031;-73
2023/02/05 12:20:38;;;;;;;16.10;3.92;;;9.60;99.90;;;;;;4937339;28;95438;-74
2023/02/05 12:23:30;;;;;;;18.58;3.30;;;9.60;99.90;;;;;;4938332;28;95459;-74
2023/02/05 12:26:12;;;;;;;15.35;3.28;;;9.60;99.90;;;;;;4938489;28;92517;-74
2023/02/05 12:28:45;;;;;;;14.75;4.13;;;9.70;99.90;;;;;;4938464;28;93342;-74
2023/02/05 12:31:12;;;;;;;20.02;3.55;;;9.70;99.90;;;;;;4937110;28;93384;-74
2023/02/05 12:34:05;;;;;;;12.55;2.40;;;9.70;99.90;;;;;;4938215;28;93143;-73
2023/02/05 12:36:59;;;;;;;15.98;2.67;;;9.80;99.90;;;;;;4920733;28;92385;-73
2023/02/05 12:39:37;;;;;;;;;;;9.70;99.90;;;;;;4937820;28;91728;-73
2023/02/05 12:42:15;;;;;;;11.20;2.60;;;9.70;99.90;;;;;;4939280;28;92920;-73
2023/02/05 12:44:54;;;;;;;19.83;3.65;;;9.70;99.90;;;;;;4937687;28;93057;-73
2023/02/05 12:47:40;;;;;;;21.67;4.75;;;9.70;99.90;;;;;;4936982;28;94937;-73
2023/02/05 12:50:45;;;;;;;20.55;3.53;;;9.80;99.90;;;;;;4936682;28;92442;-73
2023/02/05 12:53:45;;;;;;;25.27;5.20;;;9.80;99.90;;;;;;4936373;28;94470;-73
2023/02/05 12:56:15;;;;;;;15.40;4.22;;;9.80;99.90;;;;;;4936804;28;93301;-72
2023/02/05 12:58:46;;;;;;;15.95;3.53;;;9.90;99.90;;;;;;4936488;28;92416;-72
2023/02/05 13:01:19;;;;;;;13.65;3.22;;;9.90;99.90;;;;;;4938115;28;92486;-73
2023/02/05 13:03:52;;;;;;;18.60;3.70;;;9.90;99.90;;;;;;4936212;28;93401;-73
2023/02/05 13:06:25;;;;;;;19.50;3.53;;;9.90;99.90;;;;;;4920949;28;93276;-73
2023/02/05 13:09:00;;;;;;;18.42;4.13;;;9.90;99.90;;;;;;4937757;28;92371;-73
2023/02/05 13:11:45;;;;;;;19.33;3.45;;;9.90;99.90;;;;;;4936710;28;92583;-73
2023/02/05 13:14:15;;;;;;;24.58;5.45;;;9.90;99.90;;;;;;4936439;28;95747;-73
2023/02/05 13:16:54;;;;;;;17.23;3.13;;;9.90;99.90;;;;;;4937729;28;95768;-73
2023/02/05 13:19:41;;;;;;;19.40;3.58;;;9.90;99.90;;;;;;4937469;28;92395;-73
2023/02/05 13:28:38;;;;;;;22.10;4.40;;;9.70;99.90;;;;;;4937508;28;93452;-74